Time;durP1;ratioP1;P1;durP2;ratioP2;P2;SDS_P1;SDS_P2;PMS_P1;PMS_P2;Temp;Humidity;BMP_temperature;BMP_pressure;BME280_temperature;BME280_humidity;BME280_pressure;Samples;Min_cycle;Max_cycle;Signal;HPM_P1;HPM_P2
2021/09/05 00:01:13;;;;;;;9.18;8.27;;;21.30;75.90;;;;;;5081485;28;20673;-61
2021/09/05 00:03:38;;;;;;;9.82;8.80;;;21.30;75.90;;;;;;5083086;28;20039;-61
2021/09/05 00:06:04;;;;;;;9.35;8.45;;;21.30;76.00;;;;;;5062369;28;20059;-61
2021/09/05 00:08:29;;;;;;;9.18;8.18;;;21.40;76.10;;;;;;5081338;28;20134;-61
2021/09/05 00:10:55;;;;;;;9.68;8.35;;;21.20;76.20;;;;;;5077931;28;20048;-61
2021/09/05 00:13:20;;;;;;;10.23;8.25;;;21.20;76.20;;;;;;5063073;28;20032;-61
2021/09/05 00:15:46;;;;;;;9.05;8.18;;;21.10;76.20;;;;;;5082809;28;20131;-61
2021/09/05 00:18:11;;;;;;;8.32;7.53;;;21.10;76.20;;;;;;5082179;28;20036;-61
2021/09/05 00:20:37;;;;;;;9.10;8.20;;;21.10;76.30;;;;;;5062561;28;20024;-61
2021/09/05 00:23:03;;;;;;;9.23;8.32;;;21.10;76.30;;;;;;5063130;28;20648;-61
2021/09/05 00:25:32;;;;;;;9.38;8.38;;;21.10;76.40;;;;;;5083397;28;20483;-61
2021/09/05 00:27:58;;;;;;;12.30;8.43;;;21.10;76.40;;;;;;5082107;28;20459;-61
2021/09/05 00:30:24;;;;;;;8.38;7.57;;;21.00;76.40;;;;;;5062952;28;20134;-61
2021/09/05 00:32:49;;;;;;;9.52;8.55;;;21.00;76.50;;;;;;5082015;28;20043;-61
2021/09/05 00:35:15;;;;;;;8.88;8.07;;;21.00;76.60;;;;;;5062361;28;20056;-61
2021/09/05 00:37:41;;;;;;;8.88;7.97;;;21.00;76.60;;;;;;5064373;28;20044;-61
2021/09/05 00:40:07;;;;;;;8.60;7.80;;;21.00;76.70;;;;;;5080765;28;20061;-61
2021/09/05 00:42:33;;;;;;;8.90;8.10;;;20.90;76.70;;;;;;5081758;28;20103;-61
2021/09/05 00:44:58;;;;;;;9.43;8.45;;;20.90;76.80;;;;;;5081904;28;20119;-61
2021/09/05 00:47:24;;;;;;;9.05;8.00;;;20.90;77.00;;;;;;5073926;28;20116;-61
2021/09/05 00:49:49;;;;;;;8.57;7.68;;;20.80;77.10;;;;;;5080117;28;20062;-61
2021/09/05 00:52:15;;;;;;;12.32;7.80;;;20.80;77.30;;;;;;5082171;28;20494;-61
2021/09/05 00:54:43;;;;;;;9.05;8.15;;;20.80;77.30;;;;;;5046410;28;20450;-61
2021/09/05 00:57:12;;;;;;;9.13;7.55;;;20.80;77.50;;;;;;5064351;28;20114;-61
2021/09/05 00:59:42;;;;;;;9.48;8.30;;;20.70;77.50;;;;;;5080886;28;20107;-60
2021/09/05 01:02:08;;;;;;;8.88;7.97;;;20.70;77.70;;;;;;5082231;28;20066;-61
2021/09/05 01:04:34;;;;;;;10.18;7.90;;;20.70;77.80;;;;;;5081890;28;20326;-61
2021/09/05 01:06:59;;;;;;;9.13;8.00;;;20.60;77.70;;;;;;5082801;28;20028;-61
2021/09/05 01:09:25;;;;;;;9.13;8.27;;;20.60;77.70;;;;;;5082087;28;20028;-61
2021/09/05 01:11:51;;;;;;;9.75;8.18;;;20.60;77.80;;;;;;5083212;28;20038;-61
2021/09/05 01:14:16;;;;;;;8.48;7.68;;;20.60;77.90;;;;;;5067637;28;20103;-61
2021/09/05 01:16:42;;;;;;;9.73;7.65;;;20.60;78.00;;;;;;5067654;28;20032;-61
2021/09/05 01:19:12;;;;;;;9.10;7.80;;;20.60;78.10;;;;;;5065963;28;20063;-61
2021/09/05 01:21:38;;;;;;;8.68;7.65;;;20.50;78.20;;;;;;5066038;28;20055;-61
2021/09/05 01:24:04;;;;;;;9.13;8.15;;;20.50;78.30;;;;;;5063714;28;20125;-61
2021/09/05 01:26:30;;;;;;;8.77;7.63;;;20.50;78.40;;;;;;5067805;28;20462;-61
2021/09/05 01:28:56;;;;;;;10.13;8.48;;;20.50;78.50;;;;;;5066256;28;20074;-61
2021/09/05 01:31:22;;;;;;;9.45;8.02;;;20.50;78.50;;;;;;5048214;28;20141;-61
2021/09/05 01:33:47;;;;;;;8.63;7.72;;;20.40;78.60;;;;;;5066438;28;20020;-60
2021/09/05 01:36:13;;;;;;;8.68;7.82;;;20.40;78.60;;;;;;5065473;28;20437;-60
2021/09/05 01:38:38;;;;;;;8.05;7.28;;;20.40;78.80;;;;;;5083261;28;20036;-61
2021/09/05 01:41:04;;;;;;;9.70;7.95;;;20.40;78.90;;;;;;5064757;28;20047;-61
2021/09/05 01:43:30;;;;;;;9.02;8.05;;;20.40;78.90;;;;;;5084627;28;20039;-61
2021/09/05 01:45:56;;;;;;;9.57;8.55;;;20.30;79.00;;;;;;5085559;28;20024;-61
2021/09/05 01:48:21;;;;;;;12.57;8.30;;;20.30;79.00;;;;;;5064837;28;20047;-61
2021/09/05 01:50:47;;;;;;;9.32;8.05;;;20.30;79.10;;;;;;5084171;28;21467;-61
2021/09/05 01:53:12;;;;;;;10.48;8.45;;;20.30;79.10;;;;;;5084499;28;20480;-60
2021/09/05 01:55:38;;;;;;;8.70;7.18;;;20.30;79.20;;;;;;5084024;28;20031;-61
2021/09/05 01:58:03;;;;;;;8.13;7.32;;;20.30;79.20;;;;;;5082474;28;20039;-61
2021/09/05 02:00:29;;;;;;;10.48;7.97;;;20.20;79.20;;;;;;5080737;28;20074;-61
2021/09/05 02:02:54;;;;;;;8.52;7.72;;;20.20;79.40;;;;;;5066199;28;20056;-61
2021/09/05 02:05:20;;;;;;;9.48;7.90;;;20.20;79.40;;;;;;5084408;28;20043;-61
2021/09/05 02:07:45;;;;;;;9.07;7.80;;;20.20;79.50;;;;;;5085433;28;20463;-61
2021/09/05 02:10:11;;;;;;;8.68;7.78;;;20.20;79.50;;;;;;5082052;28;20039;-61
2021/09/05 02:12:36;;;;;;;8.48;7.65;;;20.20;79.60;;;;;;5064558;28;20365;-60
2021/09/05 02:15:02;;;;;;;8.57;7.75;;;20.10;79.70;;;;;;5084043;28;20114;-60
2021/09/05 02:17:27;;;;;;;9.02;8.13;;;20.10;79.70;;;;;;5084421;28;20046;-61
2021/09/05 02:19:53;;;;;;;8.48;7.68;;;20.10;79.80;;;;;;5082624;28;20030;-60
2021/09/05 02:22:18;;;;;;;8.45;7.55;;;20.00;79.80;;;;;;5083196;28;20016;-61
2021/09/05 02:24:44;;;;;;;8.80;7.95;;;20.00;79.80;;;;;;5080591;28;20544;-61
2021/09/05 02:27:09;;;;;;;8.40;7.47;;;20.00;79.90;;;;;;5084926;28;20040;-61
2021/09/05 02:29:35;;;;;;;8.50;7.70;;;20.00;80.00;;;;;;5083274;28;20036;-61
2021/09/05 02:32:00;;;;;;;10.77;7.88;;;20.00;80.00;;;;;;5082850;28;20040;-60
2021/09/05 02:34:26;;;;;;;8.38;7.57;;;20.00;80.10;;;;;;5084841;28;20535;-61
2021/09/05 02:36:51;;;;;;;8.60;7.80;;;19.90;80.10;;;;;;5065714;28;20024;-61
2021/09/05 02:39:17;;;;;;;8.55;7.75;;;19.90;80.20;;;;;;5082128;28;20120;-60
2021/09/05 02:41:42;;;;;;;9.40;8.13;;;19.90;80.20;;;;;;5082551;28;20056;-61
2021/09/05 02:44:08;;;;;;;8.13;7.32;;;19.90;80.30;;;;;;5083788;28;20068;-61
2021/09/05 02:46:34;;;;;;;9.45;7.80;;;19.80;80.30;;;;;;5066869;28;20028;-61
2021/09/05 02:48:59;;;;;;;9.65;7.95;;;19.80;80.30;;;;;;5083093;28;20040;-61
2021/09/05 02:51:25;;;;;;;7.88;7.15;;;19.80;80.40;;;;;;5060338;28;20040;-61
2021/09/05 02:53:50;;;;;;;8.02;7.22;;;19.80;80.40;;;;;;5064268;28;20451;-61
2021/09/05 02:56:16;;;;;;;8.63;7.63;;;19.80;80.50;;;;;;5084333;28;20032;-61
2021/09/05 02:58:41;;;;;;;8.07;7.25;;;19.80;80.70;;;;;;5065564;28;20028;-61
2021/09/05 03:01:07;;;;;;;9.05;7.30;;;19.70;80.60;;;;;;5062698;28;20047;-61
2021/09/05 03:03:33;;;;;;;7.93;7.13;;;19.70;80.70;;;;;;5080474;28;20032;-61
2021/09/05 03:05:58;;;;;;;8.45;7.57;;;19.70;80.70;;;;;;5065397;28;20035;-61
2021/09/05 03:08:24;;;;;;;8.27;7.10;;;19.70;80.80;;;;;;5048010;28;20039;-61
2021/09/05 03:10:49;;;;;;;8.27;7.40;;;19.70;80.80;;;;;;5061468;28;20022;-61
2021/09/05 03:13:15;;;;;;;8.02;7.28;;;19.70;80.80;;;;;;5083756;28;20028;-61
2021/09/05 03:15:41;;;;;;;8.80;7.90;;;19.60;80.80;;;;;;5082337;28;20345;-61
2021/09/05 03:18:06;;;;;;;7.82;7.05;;;19.60;80.90;;;;;;5063998;28;20039;-61
2021/09/05 03:20:32;;;;;;;8.20;7.40;;;19.60;81.10;;;;;;5082901;28;20027;-60
2021/09/05 03:22:57;;;;;;;7.90;7.10;;;19.50;81.00;;;;;;5065025;28;20031;-62
2021/09/05 03:25:23;;;;;;;8.52;7.70;;;19.50;81.10;;;;;;5081092;28;20146;-61
2021/09/05 03:27:48;;;;;;;9.15;7.03;;;19.50;81.30;;;;;;5063808;28;20498;-60
2021/09/05 03:30:14;;;;;;;8.48;7.57;;;19.50;81.40;;;;;;5082173;28;20154;-61
2021/09/05 03:32:39;;;;;;;8.45;7.50;;;19.50;81.50;;;;;;5082003;28;20384;-61
2021/09/05 03:35:05;;;;;;;8.43;7.63;;;19.50;81.50;;;;;;5083746;28;20059;-61
2021/09/05 03:37:31;;;;;;;8.52;7.57;;;19.40;81.50;;;;;;5082695;28;20119;-61
2021/09/05 03:39:56;;;;;;;11.40;7.30;;;19.40;81.60;;;;;;5062356;28;20157;-61
2021/09/05 03:42:22;;;;;;;8.60;7.38;;;19.50;81.70;;;;;;5081156;28;20498;-61
2021/09/05 03:44:47;;;;;;;8.40;7.47;;;19.40;81.70;;;;;;5084112;28;20052;-61
2021/09/05 03:47:14;;;;;;;8.70;7.80;;;19.40;81.70;;;;;;5048809;28;20270;-61
2021/09/05 03:49:39;;;;;;;8.52;7.65;;;19.40;81.90;;;;;;5082430;28;20035;-61
2021/09/05 03:52:05;;;;;;;7.85;7.05;;;19.40;81.90;;;;;;5081935;28;20032;-60
2021/09/05 03:54:30;;;;;;;8.50;7.60;;;19.30;82.00;;;;;;5061412;28;20028;-61
2021/09/05 03:56:56;;;;;;;9.70;7.72;;;19.30;81.90;;;;;;5081561;28;20089;-61
2021/09/05 03:59:21;;;;;;;8.00;7.20;;;19.30;82.00;;;;;;5081823;28;20309;-61
2021/09/05 04:01:47;;;;;;;8.07;7.38;;;19.30;82.10;;;;;;5081358;28;20122;-61
2021/09/05 04:04:12;;;;;;;8.07;7.28;;;19.30;82.20;;;;;;5062837;28;20114;-61
2021/09/05 04:06:38;;;;;;;7.85;7.05;;;19.30;82.20;;;;;;5080408;28;20044;-61
2021/09/05 04:09:17;;;;;;;8.70;7.50;;;19.30;82.20;;;;;;5081866;28;20032;-61
2021/09/05 04:11:43;;;;;;;7.63;6.82;;;19.20;82.20;;;;;;5048969;28;20392;-61
2021/09/05 04:14:08;;;;;;;8.48;7.57;;;19.20;82.30;;;;;;5064545;28;20024;-61
2021/09/05 04:16:34;;;;;;;8.55;7.38;;;19.20;82.40;;;;;;5065205;28;20379;-61
2021/09/05 04:18:59;;;;;;;7.85;7.15;;;19.20;82.50;;;;;;5052665;28;20127;-61
2021/09/05 04:21:25;;;;;;;8.52;7.00;;;19.20;82.60;;;;;;5078887;28;20036;-61
2021/09/05 04:23:50;;;;;;;8.02;7.22;;;19.20;82.60;;;;;;5063016;28;20484;-61
2021/09/05 04:26:16;;;;;;;10.07;7.55;;;19.10;82.50;;;;;;5079348;28;20535;-61
2021/09/05 04:28:41;;;;;;;8.48;7.65;;;19.20;82.70;;;;;;5081210;28;20048;-61
2021/09/05 04:31:07;;;;;;;8.38;7.53;;;19.10;82.70;;;;;;5081363;28;20044;-61
2021/09/05 04:33:32;;;;;;;7.85;7.05;;;19.10;82.70;;;;;;5062897;28;20024;-62
2021/09/05 04:35:59;;;;;;;8.63;7.45;;;19.10;82.70;;;;;;5065437;28;20241;-60
2021/09/05 04:38:24;;;;;;;7.95;6.95;;;19.00;82.80;;;;;;5081838;28;20119;-61
2021/09/05 04:40:50;;;;;;;8.05;7.35;;;19.00;82.80;;;;;;5060970;28;20687;-61
2021/09/05 04:43:16;;;;;;;8.63;7.72;;;19.00;82.90;;;;;;5081688;28;20100;-61
2021/09/05 04:45:41;;;;;;;11.20;7.88;;;19.00;82.90;;;;;;5086404;28;20082;-61
2021/09/05 04:48:07;;;;;;;8.88;7.97;;;19.00;82.80;;;;;;5085182;28;20347;-61
2021/09/05 04:50:32;;;;;;;8.45;7.55;;;19.00;82.90;;;;;;5066880;28;20484;-61
2021/09/05 04:52:58;;;;;;;9.23;7.25;;;19.00;83.00;;;;;;5085133;28;20379;-61
2021/09/05 04:55:23;;;;;;;8.75;7.85;;;19.00;83.00;;;;;;5067075;28;20028;-61
2021/09/05 04:57:49;;;;;;;11.07;7.97;;;19.00;83.10;;;;;;5086205;28;20024;-61
2021/09/05 05:00:15;;;;;;;9.23;8.13;;;19.00;83.20;;;;;;5083344;28;20031;-61
2021/09/05 05:02:40;;;;;;;18.10;8.25;;;18.90;83.30;;;;;;5086383;28;20020;-62
2021/09/05 05:05:06;;;;;;;17.25;7.97;;;19.00;83.50;;;;;;5084865;28;20032;-61
2021/09/05 05:07:32;;;;;;;15.57;8.88;;;18.90;83.40;;;;;;5085022;28;20089;-61
2021/09/05 05:09:57;;;;;;;10.80;8.20;;;18.90;83.60;;;;;;5065177;28;20027;-61
2021/09/05 05:12:23;;;;;;;16.45;9.15;;;18.90;83.60;;;;;;5066215;28;20036;-61
2021/09/05 05:14:48;;;;;;;9.55;8.15;;;18.90;83.70;;;;;;5084110;28;20035;-60
2021/09/05 05:17:14;;;;;;;11.77;8.57;;;18.90;83.70;;;;;;5067697;28;20025;-61
2021/09/05 05:19:39;;;;;;;16.27;7.93;;;18.90;83.90;;;;;;5081967;28;20036;-61
2021/09/05 05:22:05;;;;;;;9.55;8.50;;;18.90;84.00;;;;;;5081954;28;20542;-61
2021/09/05 05:24:31;;;;;;;15.05;9.18;;;18.90;84.40;;;;;;5071505;28;20044;-61
2021/09/05 05:26:56;;;;;;;14.20;8.60;;;18.90;84.40;;;;;;5083517;28;20077;-61
2021/09/05 05:29:22;;;;;;;9.95;8.95;;;18.90;84.50;;;;;;5063884;28;20036;-61
2021/09/05 05:31:47;;;;;;;10.05;8.98;;;18.90;84.70;;;;;;5084208;28;20028;-61
2021/09/05 05:34:13;;;;;;;11.05;8.82;;;18.90;84.70;;;;;;5082957;28;20211;-61
2021/09/05 05:36:38;;;;;;;10.88;8.63;;;18.90;84.80;;;;;;5086061;28;20024;-61
2021/09/05 05:39:04;;;;;;;10.80;9.18;;;18.80;84.70;;;;;;5064741;28;20455;-61
2021/09/05 05:41:29;;;;;;;10.23;9.10;;;18.80;84.70;;;;;;5083393;28;20103;-61
2021/09/05 05:43:55;;;;;;;14.73;10.07;;;18.80;84.80;;;;;;5083983;28;20503;-61
2021/09/05 05:46:20;;;;;;;13.20;9.93;;;18.80;84.90;;;;;;5084896;28;20551;-61
2021/09/05 05:48:46;;;;;;;15.30;8.73;;;18.80;85.10;;;;;;5065037;28;20125;-61
2021/09/05 05:51:11;;;;;;;12.23;9.60;;;18.80;85.20;;;;;;5085213;28;20028;-61
2021/09/05 05:53:37;;;;;;;10.88;9.43;;;18.80;85.30;;;;;;5064207;28;20143;-61
2021/09/05 05:56:03;;;;;;;15.73;9.50;;;18.80;85.40;;;;;;5084548;28;20054;-61
2021/09/05 05:58:29;;;;;;;18.20;9.98;;;18.80;85.40;;;;;;5065162;28;20110;-61
2021/09/05 06:00:54;;;;;;;11.13;9.93;;;18.80;85.40;;;;;;5063563;28;20128;-61
2021/09/05 06:03:21;;;;;;;11.57;9.15;;;18.80;85.60;;;;;;5066579;28;20055;-61
2021/09/05 06:05:47;;;;;;;12.07;9.52;;;18.80;85.50;;;;;;5066731;28;20024;-61
2021/09/05 06:08:13;;;;;;;11.35;10.07;;;18.80;85.50;;;;;;5065131;28;20461;-60
2021/09/05 06:10:38;;;;;;;12.95;9.57;;;18.80;85.50;;;;;;5082912;28;20298;-61
2021/09/05 06:13:04;;;;;;;13.82;10.63;;;18.80;85.50;;;;;;5084116;28;20028;-61
2021/09/05 06:15:29;;;;;;;20.08;9.20;;;18.80;85.60;;;;;;5066923;28;20032;-61
2021/09/05 06:17:55;;;;;;;16.80;11.55;;;18.80;85.70;;;;;;5084956;28;20061;-61
2021/09/05 06:20:20;;;;;;;16.67;10.50;;;18.80;85.80;;;;;;5082055;28;20066;-61
2021/09/05 06:22:46;;;;;;;15.45;10.57;;;18.80;86.00;;;;;;5084500;28;20119;-61
2021/09/05 06:25:11;;;;;;;15.95;11.02;;;18.80;86.20;;;;;;5083124;28;20048;-61
2021/09/05 06:27:37;;;;;;;14.57;10.80;;;18.80;86.20;;;;;;5084723;28;20054;-61
2021/09/05 06:30:03;;;;;;;13.65;10.77;;;18.80;86.20;;;;;;5082557;28;20043;-61
2021/09/05 06:32:28;;;;;;;12.55;10.43;;;18.80;86.40;;;;;;5081250;28;20032;-61
2021/09/05 06:34:54;;;;;;;14.90;10.50;;;18.80;86.50;;;;;;5082656;28;20040;-61
2021/09/05 06:37:20;;;;;;;18.02;11.27;;;18.80;86.50;;;;;;5084252;28;20395;-61
2021/09/05 06:39:45;;;;;;;12.63;11.07;;;18.80;86.70;;;;;;5081887;28;20335;-61
2021/09/05 06:42:11;;;;;;;13.40;11.48;;;18.80;86.80;;;;;;5082368;28;20043;-61
2021/09/05 06:44:37;;;;;;;13.43;11.55;;;18.80;86.70;;;;;;5082927;28;20024;-62
2021/09/05 06:47:03;;;;;;;14.48;11.77;;;18.80;86.80;;;;;;5065701;28;20048;-61
2021/09/05 06:49:28;;;;;;;19.90;11.48;;;18.80;86.80;;;;;;5063471;28;20395;-61
2021/09/05 06:51:54;;;;;;;14.75;12.13;;;18.80;86.90;;;;;;5082996;28;20522;-61
2021/09/05 06:54:19;;;;;;;14.80;11.20;;;18.80;87.00;;;;;;5064070;28;20067;-61
2021/09/05 06:56:45;;;;;;;19.42;11.77;;;18.80;86.90;;;;;;5083457;28;20131;-61
2021/09/05 06:59:10;;;;;;;17.08;12.10;;;18.80;86.90;;;;;;5065054;28;20056;-60
2021/09/05 07:01:36;;;;;;;12.98;11.13;;;18.80;86.90;;;;;;5064403;28;20108;-61
2021/09/05 07:04:01;;;;;;;16.42;11.98;;;18.80;87.00;;;;;;5084847;28;20028;-61
2021/09/05 07:06:27;;;;;;;16.67;12.93;;;18.80;87.00;;;;;;5064205;28;20047;-61
2021/09/05 07:08:52;;;;;;;14.30;11.20;;;18.80;87.40;;;;;;5082913;28;20027;-61
2021/09/05 07:11:18;;;;;;;16.25;12.15;;;18.80;87.60;;;;;;5080691;28;20882;-61
2021/09/05 07:13:43;;;;;;;14.55;11.07;;;18.80;87.70;;;;;;5082384;28;20635;-61
2021/09/05 07:16:09;;;;;;;18.42;12.73;;;18.80;87.70;;;;;;5064773;28;20712;-61
2021/09/05 07:18:34;;;;;;;26.77;12.63;;;18.80;87.80;;;;;;5064196;28;20063;-60
2021/09/05 07:21:00;;;;;;;19.17;12.65;;;18.80;87.80;;;;;;5081575;28;20141;-61
2021/09/05 07:23:28;;;;;;;14.90;11.57;;;18.80;87.70;;;;;;5072282;28;20083;-60
2021/09/05 07:25:55;;;;;;;15.10;10.98;;;18.80;87.80;;;;;;5047673;28;20683;-61
2021/09/05 07:28:21;;;;;;;16.92;11.88;;;18.80;87.90;;;;;;5037387;28;20444;-61
2021/09/05 07:30:46;;;;;;;13.75;11.60;;;18.80;89.00;;;;;;5052475;28;20051;-61
2021/09/05 07:33:12;;;;;;;14.18;11.48;;;18.80;88.80;;;;;;5040579;28;20349;-61
2021/09/05 07:35:37;;;;;;;12.48;10.77;;;18.80;88.80;;;;;;5047198;28;20664;-61
2021/09/05 07:38:03;;;;;;;14.27;11.02;;;18.80;89.00;;;;;;5054439;28;20510;-61
2021/09/05 07:40:28;;;;;;;12.35;11.10;;;18.80;89.30;;;;;;5051591;28;20392;-60
2021/09/05 07:42:54;;;;;;;13.02;10.30;;;18.80;89.50;;;;;;5048428;28;20037;-61
2021/09/05 07:45:19;;;;;;;12.23;10.73;;;18.80;89.40;;;;;;5054305;28;20029;-61
2021/09/05 07:47:45;;;;;;;14.95;10.20;;;18.80;89.30;;;;;;5040845;28;20519;-61
2021/09/05 07:50:10;;;;;;;13.30;9.65;;;18.80;89.30;;;;;;5057413;28;20056;-60
2021/09/05 07:52:36;;;;;;;10.98;9.20;;;18.80;89.40;;;;;;5053756;28;20082;-61
2021/09/05 07:55:02;;;;;;;15.23;10.15;;;18.80;88.90;;;;;;5056010;28;20050;-61
2021/09/05 07:57:27;;;;;;;14.35;10.65;;;18.80;88.80;;;;;;5058807;28;20490;-61
2021/09/05 07:59:53;;;;;;;10.40;9.27;;;18.80;88.90;;;;;;5056801;28;20040;-61
2021/09/05 08:02:18;;;;;;;15.80;9.85;;;18.90;89.10;;;;;;5050285;28;20199;-61
2021/09/05 08:04:44;;;;;;;11.15;9.93;;;18.80;88.80;;;;;;5039459;28;20055;-61
2021/09/05 08:07:10;;;;;;;12.98;10.57;;;18.90;89.00;;;;;;5061296;28;20383;-61
2021/09/05 08:09:36;;;;;;;10.00;9.00;;;18.80;88.70;;;;;;5055703;28;20044;-61
2021/09/05 08:12:01;;;;;;;11.75;9.75;;;18.80;88.20;;;;;;5018642;28;20392;-61
2021/09/05 08:14:27;;;;;;;14.13;10.50;;;18.90;88.50;;;;;;5055853;28;20031;-61
2021/09/05 08:16:52;;;;;;;15.23;11.23;;;18.90;88.40;;;;;;5054203;28;20476;-61
2021/09/05 08:19:18;;;;;;;16.23;10.35;;;18.90;88.40;;;;;;5052038;28;20057;-61
2021/09/05 08:21:44;;;;;;;19.83;10.57;;;18.90;88.30;;;;;;5043228;28;20051;-61
2021/09/05 08:24:10;;;;;;;18.83;10.38;;;18.90;88.20;;;;;;5054319;28;20052;-61
2021/09/05 08:26:35;;;;;;;27.58;11.68;;;18.90;88.10;;;;;;5083986;28;20020;-61
2021/09/05 08:29:01;;;;;;;20.20;10.48;;;18.90;88.10;;;;;;5082909;28;20055;-61
2021/09/05 08:31:26;;;;;;;19.08;11.52;;;19.00;88.10;;;;;;5085067;28;20032;-61
2021/09/05 08:33:52;;;;;;;22.30;10.90;;;19.00;88.20;;;;;;5049122;28;20139;-61
2021/09/05 08:36:17;;;;;;;24.77;11.68;;;19.00;88.40;;;;;;5085371;28;20028;-61
2021/09/05 08:38:43;;;;;;;30.67;11.15;;;19.00;88.60;;;;;;5084269;28;20036;-60
2021/09/05 08:41:08;;;;;;;33.60;11.85;;;19.00;88.40;;;;;;5061267;28;20024;-61
2021/09/05 08:43:37;;;;;;;44.47;11.95;;;19.10;88.60;;;;;;5064733;28;20482;-60
2021/09/05 08:46:03;;;;;;;54.83;13.27;;;19.10;88.50;;;;;;5083287;28;20063;-61
2021/09/05 08:48:28;;;;;;;41.70;12.57;;;19.20;88.30;;;;;;5065001;28;20048;-61
2021/09/05 08:50:54;;;;;;;45.15;12.32;;;19.20;88.20;;;;;;5065450;28;20047;-61
2021/09/05 08:53:19;;;;;;;53.30;13.25;;;19.20;88.20;;;;;;5083140;28;20063;-61
2021/09/05 08:55:45;;;;;;;69.68;14.10;;;19.30;88.20;;;;;;5065409;28;20056;-61
2021/09/05 08:58:11;;;;;;;142.07;19.85;;;19.30;87.90;;;;;;5058030;28;20032;-61
2021/09/05 09:00:37;;;;;;;85.22;14.80;;;19.30;87.80;;;;;;5061437;28;20085;-61
2021/09/05 09:03:02;;;;;;;48.28;12.25;;;19.40;87.80;;;;;;5061875;28;20028;-60
2021/09/05 09:05:35;;;;;;;58.28;13.43;;;19.40;87.40;;;;;;5078679;28;20384;-61
2021/09/05 09:08:06;;;;;;;65.95;13.82;;;19.40;87.50;;;;;;5077708;28;20116;-60
2021/09/05 09:10:32;;;;;;;60.33;13.02;;;19.50;87.40;;;;;;5078507;28;20028;-61
2021/09/05 09:12:58;;;;;;;66.25;15.30;;;19.50;87.40;;;;;;5064222;28;20043;-60
2021/09/05 09:15:27;;;;;;;77.90;14.95;;;19.50;87.20;;;;;;5062296;28;20132;-61
2021/09/05 09:18:03;;;;;;;189.38;25.48;;;19.50;87.20;;;;;;5082382;28;20028;-61
2021/09/05 09:20:30;;;;;;;;;;;19.60;87.20;;;;;;5080633;28;20895;-61
2021/09/05 09:23:04;;;;;;;74.20;15.13;;;19.60;86.90;;;;;;5079763;28;19923;-61
2021/09/05 09:25:30;;;;;;;63.45;15.20;;;19.60;86.80;;;;;;5080975;28;20027;-61
2021/09/05 09:27:55;;;;;;;77.10;13.60;;;19.70;86.70;;;;;;5061311;28;20379;-61
2021/09/05 09:30:21;;;;;;;75.00;15.57;;;19.70;86.60;;;;;;5063457;28;20082;-61
2021/09/05 09:32:50;;;;;;;78.32;14.50;;;19.80;86.50;;;;;;5061476;28;20627;-61
2021/09/05 09:35:16;;;;;;;67.53;14.73;;;19.80;86.00;;;;;;5080365;28;20044;-61
2021/09/05 09:37:46;;;;;;;130.30;19.50;;;19.80;86.10;;;;;;5062826;28;20506;-61
2021/09/05 09:40:12;;;;;;;72.63;15.57;;;19.90;85.90;;;;;;5081409;28;20047;-61
2021/09/05 09:42:39;;;;;;;106.03;14.40;;;19.90;85.60;;;;;;5045218;28;20436;-61
2021/09/05 09:45:12;;;;;;;73.10;13.45;;;19.90;85.50;;;;;;5062552;28;20618;-63
2021/09/05 09:47:41;;;;;;;134.95;19.98;;;19.90;85.40;;;;;;5046730;28;20121;-63
2021/09/05 09:50:07;;;;;;;89.03;15.52;;;20.00;85.40;;;;;;5075841;28;20044;-62
2021/09/05 09:52:33;;;;;;;77.82;15.48;;;20.00;85.50;;;;;;5081803;28;20024;-62
2021/09/05 09:54:58;;;;;;;90.28;15.35;;;20.00;85.50;;;;;;5062191;28;20024;-63
2021/09/05 09:57:24;;;;;;;123.43;15.98;;;20.00;85.30;;;;;;5078423;28;20091;-62
2021/09/05 09:59:49;;;;;;;91.68;14.98;;;20.00;84.90;;;;;;5046495;28;20379;-63
2021/09/05 10:02:17;;;;;;;85.40;14.98;;;20.10;84.80;;;;;;5082862;28;20460;-63
2021/09/05 10:04:42;;;;;;;113.15;17.02;;;20.10;84.80;;;;;;5079977;28;20020;-63
2021/09/05 10:07:08;;;;;;;91.03;17.80;;;20.20;84.60;;;;;;5066220;28;20115;-63
2021/09/05 10:09:34;;;;;;;111.55;17.25;;;20.20;84.50;;;;;;5080104;28;20453;-61
2021/09/05 10:11:59;;;;;;;102.25;18.17;;;20.20;84.40;;;;;;5063652;28;20060;-61
2021/09/05 10:14:25;;;;;;;114.55;18.25;;;20.20;84.50;;;;;;5060137;28;20036;-62
2021/09/05 10:16:50;;;;;;;107.05;17.10;;;20.30;84.50;;;;;;5081394;28;20165;-61
2021/09/05 10:19:16;;;;;;;111.38;17.33;;;20.30;84.80;;;;;;5047320;28;20447;-60
2021/09/05 10:21:41;;;;;;;97.45;16.50;;;20.40;84.90;;;;;;5065315;28;20059;-60
2021/09/05 10:24:14;;;;;;;100.63;15.75;;;20.40;84.60;;;;;;5057121;28;21449;-61
2021/09/05 10:26:58;;;;;;;114.90;17.08;;;20.50;84.20;;;;;;5063455;28;20044;-64
2021/09/05 10:29:24;;;;;;;86.15;17.73;;;20.50;84.10;;;;;;5056508;28;20363;-63
2021/09/05 10:31:49;;;;;;;88.68;16.60;;;20.50;84.10;;;;;;5054304;28;20048;-61
2021/09/05 10:34:34;;;;;;;82.93;15.73;;;20.60;83.70;;;;;;5067692;28;20098;-63
2021/09/05 10:37:18;;;;;;;81.68;15.02;;;20.60;83.40;;;;;;5056426;28;20020;-63
2021/09/05 10:40:09;;;;;;;75.68;14.02;;;20.70;83.50;;;;;;5023954;28;20138;-63
2021/09/05 10:42:56;;;;;;;70.10;13.98;;;20.70;83.30;;;;;;5038053;28;20037;-63
2021/09/05 10:45:22;;;;;;;70.53;13.40;;;20.70;83.10;;;;;;5042416;28;20028;-63
2021/09/05 10:47:48;;;;;;;64.72;12.32;;;20.80;82.50;;;;;;5028652;28;20160;-64
2021/09/05 10:50:34;;;;;;;74.38;14.70;;;20.80;82.30;;;;;;5042377;28;20537;-63
2021/09/05 10:53:29;;;;;;;69.55;15.18;;;20.80;82.20;;;;;;5045991;28;20030;-61
2021/09/05 10:56:11;;;;;;;58.72;11.32;;;20.90;82.00;;;;;;5031720;28;20086;-61
2021/09/05 10:58:57;;;;;;;64.70;12.00;;;21.00;80.90;;;;;;5044072;28;20028;-61
2021/09/05 11:01:36;;;;;;;57.70;11.98;;;21.00;80.70;;;;;;5034234;28;20031;-63
2021/09/05 11:04:11;;;;;;;71.10;12.82;;;21.10;80.80;;;;;;5031343;28;20381;-63
2021/09/05 11:06:40;;;;;;;72.75;13.25;;;21.10;80.60;;;;;;5066226;28;20121;-60
2021/09/05 11:09:19;;;;;;;89.55;13.55;;;21.20;80.10;;;;;;5028908;28;20465;-61
2021/09/05 11:12:04;;;;;;;57.47;12.48;;;21.20;80.10;;;;;;5059560;28;20037;-61
2021/09/05 11:14:36;;;;;;;63.20;11.85;;;21.30;79.30;;;;;;5057925;28;20491;-61
2021/09/05 11:17:02;;;;;;;59.75;11.57;;;21.30;78.70;;;;;;5063205;28;20039;-61
2021/09/05 11:19:30;;;;;;;76.22;12.25;;;21.40;78.50;;;;;;5049073;28;20438;-61
2021/09/05 11:21:56;;;;;;;54.67;11.77;;;21.50;78.60;;;;;;5049377;28;20020;-61
2021/09/05 11:24:21;;;;;;;71.78;12.65;;;21.50;78.50;;;;;;5053398;28;20074;-61
2021/09/05 11:27:03;;;;;;;66.90;13.45;;;21.60;78.50;;;;;;5045634;28;20024;-62
2021/09/05 11:29:29;;;;;;;63.03;11.68;;;21.70;78.40;;;;;;5061905;28;20043;-65
2021/09/05 11:32:06;;;;;;;75.65;12.95;;;21.70;78.30;;;;;;5047704;28;20048;-63
2021/09/05 11:34:35;;;;;;;89.68;15.50;;;21.80;78.40;;;;;;5047728;28;20041;-63
2021/09/05 11:37:01;;;;;;;68.75;14.38;;;21.80;78.10;;;;;;5042855;28;20559;-63
2021/09/05 11:39:27;;;;;;;81.22;14.95;;;21.90;78.20;;;;;;5050953;28;20048;-63
2021/09/05 11:41:56;;;;;;;80.60;13.32;;;22.00;78.10;;;;;;5049681;28;20100;-64
2021/09/05 11:44:34;;;;;;;76.47;13.93;;;22.10;78.30;;;;;;5066796;28;20498;-63
2021/09/05 11:47:09;;;;;;;74.30;12.35;;;22.10;78.20;;;;;;5035567;28;20056;-63
2021/09/05 11:49:35;;;;;;;82.63;13.70;;;22.10;78.20;;;;;;5068580;28;20024;-63
2021/09/05 11:52:01;;;;;;;64.63;12.68;;;22.20;78.00;;;;;;5050329;28;20192;-62
2021/09/05 11:54:26;;;;;;;74.30;13.63;;;22.30;78.10;;;;;;5050272;28;20086;-63
2021/09/05 11:56:52;;;;;;;75.18;12.73;;;22.40;77.80;;;;;;5058390;28;20689;-63
2021/09/05 11:59:17;;;;;;;71.00;13.77;;;22.50;77.80;;;;;;5028994;28;20081;-62
2021/09/05 12:01:48;;;;;;;95.10;13.80;;;22.50;77.70;;;;;;5062297;28;20407;-62
2021/09/05 12:04:14;;;;;;;69.70;13.00;;;22.60;77.80;;;;;;5028776;28;20021;-63
2021/09/05 12:06:43;;;;;;;71.00;12.80;;;22.60;77.50;;;;;;5045653;28;20273;-62
2021/09/05 12:09:09;;;;;;;71.18;13.48;;;22.70;77.20;;;;;;5029134;28;20434;-62
2021/09/05 12:12:02;;;;;;;73.22;13.07;;;22.80;77.00;;;;;;5033948;28;20061;-63
2021/09/05 12:14:29;;;;;;;55.55;12.38;;;22.80;77.40;;;;;;5042275;28;20649;-62
2021/09/05 12:16:54;;;;;;;68.57;13.23;;;22.90;76.60;;;;;;5061440;28;20014;-62
2021/09/05 12:19:20;;;;;;;66.93;13.63;;;23.00;76.40;;;;;;5059746;28;20032;-63
2021/09/05 12:21:45;;;;;;;71.97;13.52;;;23.10;76.20;;;;;;5061672;28;20028;-63
2021/09/05 12:24:20;;;;;;;52.38;11.82;;;23.10;75.80;;;;;;5063871;28;20047;-62
2021/09/05 12:26:46;;;;;;;89.03;14.52;;;23.20;75.70;;;;;;5050653;28;20046;-62
2021/09/05 12:29:12;;;;;;;81.90;14.40;;;23.20;75.60;;;;;;5066356;28;20036;-63
2021/09/05 12:31:47;;;;;;;122.20;17.85;;;23.30;75.50;;;;;;5053429;28;20028;-63
2021/09/05 12:34:38;;;;;;;85.47;13.93;;;23.40;75.40;;;;;;5047649;28;20032;-62